Time;durP1;ratioP1;P1;durP2;ratioP2;P2;SDS_P1;SDS_P2;PMS_P1;PMS_P2;Temp;Humidity;BMP_temperature;BMP_pressure;BME280_temperature;BME280_humidity;BME280_pressure;Samples;Min_cycle;Max_cycle;Signal;HPM_P1;HPM_P2
2023/10/25 00:00:57;;;;;;;11.18;1.42;;;;;;;16.35;100.00;97985.72;5011985;28;20100;-96
2023/10/25 00:03:23;;;;;;;10.57;1.55;;;;;;;16.57;100.00;98017.44;5011090;28;20053;-95
2023/10/25 00:05:49;;;;;;;7.97;1.30;;;;;;;16.41;100.00;97993.38;5010054;28;20042;-95
2023/10/25 00:08:16;;;;;;;12.50;2.38;;;;;;;16.47;100.00;97994.84;5010294;28;20138;-95
2023/10/25 00:10:42;;;;;;;8.40;1.33;;;;;;;16.58;100.00;98027.22;5011199;28;20048;-95
2023/10/25 00:13:08;;;;;;;14.85;1.63;;;;;;;16.39;100.00;98000.66;5010386;28;20073;-92
2023/10/25 00:15:34;;;;;;;9.85;1.58;;;;;;;16.36;100.00;97984.78;5014933;28;20384;-96
2023/10/25 00:18:00;;;;;;;9.77;1.40;;;;;;;16.39;100.00;97980.09;5031674;28;20073;-94
2023/10/25 00:20:26;;;;;;;7.45;1.83;;;;;;;16.48;100.00;97996.53;5030234;28;20052;-95
2023/10/25 00:22:52;;;;;;;8.85;1.65;;;;;;;16.41;100.00;97996.06;5029831;28;20159;-95
2023/10/25 00:25:20;;;;;;;9.52;1.45;;;;;;;16.83;100.00;98053.41;5030335;28;20046;-94
2023/10/25 00:27:49;;;;;;;14.73;1.52;;;;;;;16.38;100.00;97986.41;5064568;28;20045;-94
2023/10/25 00:30:15;;;;;;;12.85;1.38;;;;;;;16.50;100.00;98016.09;5029190;28;20043;-96
2023/10/25 00:32:42;;;;;;;6.75;1.50;;;;;;;16.32;100.00;97999.34;5030535;28;20117;-95
2023/10/25 00:35:09;;;;;;;6.47;1.33;;;;;;;16.34;100.00;97997.44;5046825;28;20080;-94
2023/10/25 00:37:35;;;;;;;9.85;1.45;;;;;;;16.28;100.00;97989.75;5028661;28;20053;-94
2023/10/25 00:40:01;;;;;;;10.52;1.15;;;;;;;16.30;100.00;97983.34;5029101;28;20077;-94
2023/10/25 00:42:31;;;;;;;4.15;1.20;;;;;;;16.71;100.00;98046.94;5029587;28;20095;-96
2023/10/25 00:44:57;;;;;;;10.68;1.33;;;;;;;16.34;100.00;97984.00;5026899;28;20049;-96
2023/10/25 00:47:24;;;;;;;8.13;1.33;;;;;;;16.57;100.00;98041.59;5025958;28;20056;-95
2023/10/25 00:49:50;;;;;;;6.82;1.55;;;;;;;16.46;100.00;98025.28;5027281;28;20041;-94
2023/10/25 00:52:17;;;;;;;6.82;1.00;;;;;;;16.28;100.00;98008.53;5027776;28;20534;-93
2023/10/25 00:54:43;;;;;;;9.10;1.10;;;;;;;16.05;100.00;97984.00;5027315;28;20560;-95
2023/10/25 00:57:09;;;;;;;6.80;1.55;;;;;;;16.18;100.00;98003.75;5027792;28;20037;-95
2023/10/25 00:59:38;;;;;;;9.55;0.90;;;;;;;16.17;100.00;98007.38;5029770;28;20117;-96
2023/10/25 01:02:05;;;;;;;7.03;1.10;;;;;;;15.97;100.00;97964.84;5028684;28;20108;-95
2023/10/25 01:04:32;;;;;;;7.72;1.35;;;;;;;15.91;100.00;97974.13;5028956;28;20045;-94
2023/10/25 01:06:58;;;;;;;7.85;1.02;;;;;;;15.94;100.00;97981.09;5028837;28;20077;-95
2023/10/25 01:09:24;;;;;;;6.90;1.55;;;;;;;15.90;100.00;97976.91;5029403;28;20036;-95
2023/10/25 01:11:50;;;;;;;4.85;1.20;;;;;;;16.02;100.00;97995.78;5028406;28;20052;-95
2023/10/25 01:14:16;;;;;;;6.15;1.17;;;;;;;15.88;100.00;97974.31;5028497;28;20049;-93
2023/10/25 01:16:43;;;;;;;9.30;1.17;;;;;;;15.93;100.00;97960.63;5027997;28;20507;-95
2023/10/25 01:19:09;;;;;;;9.90;1.60;;;;;;;16.13;100.00;97987.06;5026883;28;20052;-96
2023/10/25 01:21:35;;;;;;;11.35;1.40;;;;;;;16.23;100.00;97984.69;5026052;28;20045;-94
2023/10/25 01:24:03;;;;;;;8.82;1.77;;;;;;;16.14;100.00;97961.13;5024887;28;20136;-95
2023/10/25 01:26:29;;;;;;;5.97;1.10;;;;;;;16.20;100.00;97964.28;5026070;28;20117;-95
2023/10/25 01:28:55;;;;;;;7.68;1.10;;;;;;;16.06;100.00;97937.44;5023816;28;20061;-94
2023/10/25 01:31:21;;;;;;;6.05;1.63;;;;;;;16.14;100.00;97937.84;5024622;28;20132;-96
2023/10/25 01:33:51;;;;;;;12.25;1.27;;;;;;;16.08;100.00;97923.97;5024483;28;20048;-94
2023/10/25 01:36:17;;;;;;;11.55;1.33;;;;;;;16.11;100.00;97924.63;5023302;28;20107;-95
2023/10/25 01:38:42;;;;;;;3.95;1.20;;;;;;;16.16;100.00;97927.88;5022063;28;20045;-95
2023/10/25 01:41:15;;;;;;;3.85;0.98;;;;;;;16.56;100.00;97970.94;5022419;28;20103;-94
2023/10/25 01:43:41;;;;;;;7.65;1.23;;;;;;;16.54;100.00;97975.53;5034844;28;20160;-95
2023/10/25 01:46:07;;;;;;;6.68;1.33;;;;;;;16.43;100.00;97940.47;5020510;28;20045;-94
2023/10/25 01:48:33;;;;;;;7.22;1.63;;;;;;;16.39;100.00;97917.50;5020627;28;20029;-95
2023/10/25 01:50:59;;;;;;;11.73;1.92;;;;;;;16.67;100.00;97970.25;5021104;28;20051;-95
2023/10/25 01:53:25;;;;;;;11.27;1.48;;;;;;;16.59;100.00;97962.72;5019533;28;20049;-95
2023/10/25 01:55:52;;;;;;;6.90;1.40;;;;;;;16.59;100.00;97946.59;5020035;28;20072;-94
2023/10/25 01:58:22;;;;;;;6.93;1.02;;;;;;;16.51;100.00;97942.69;5021115;28;20045;-96
2023/10/25 02:00:48;;;;;;;13.07;1.60;;;;;;;16.46;100.00;97952.84;5020504;28;20042;-94
2023/10/25 02:03:14;;;;;;;10.27;1.98;;;;;;;16.37;100.00;97948.91;5015950;28;20381;-94
2023/10/25 02:05:40;;;;;;;5.90;1.10;;;;;;;16.35;100.00;97977.66;5001182;28;20038;-95
2023/10/25 02:08:06;;;;;;;8.43;1.42;;;;;;;15.85;100.00;97907.47;5020538;28;20096;-95
2023/10/25 02:10:33;;;;;;;6.38;1.23;;;;;;;16.13;100.00;97965.59;5019402;28;20507;-94
2023/10/25 02:12:59;;;;;;;7.32;1.42;;;;;;;15.86;100.00;97916.41;5019907;28;20128;-95
2023/10/25 02:15:27;;;;;;;10.30;1.63;;;;;;;16.36;100.00;97992.81;5019210;28;20472;-95
2023/10/25 02:17:53;;;;;;;6.97;1.25;;;;;;;15.91;100.00;97916.97;5019528;28;20042;-95
2023/10/25 02:20:19;;;;;;;13.95;1.70;;;;;;;16.01;100.00;97939.56;5018681;28;20041;-95
2023/10/25 02:22:45;;;;;;;6.65;1.30;;;;;;;15.96;100.00;97918.41;5019189;28;20088;-95
2023/10/25 02:25:11;;;;;;;8.20;1.08;;;;;;;16.18;100.00;97960.84;5019321;28;20041;-94
2023/10/25 02:27:37;;;;;;;13.50;1.77;;;;;;;16.01;100.00;97924.34;5019137;28;20077;-95
2023/10/25 02:30:04;;;;;;;13.60;1.38;;;;;;;16.17;100.00;97937.63;5018966;28;20502;-93
2023/10/25 02:32:32;;;;;;;8.57;1.13;;;;;;;16.20;100.00;97941.97;5018488;28;20053;-94
2023/10/25 02:34:58;;;;;;;9.63;1.27;;;;;;;16.44;100.00;97977.09;5018931;28;20053;-96
2023/10/25 02:37:23;;;;;;;6.82;1.02;;;;;;;16.19;100.00;97933.03;5019196;28;20048;-95
2023/10/25 02:39:49;;;;;;;7.65;1.15;;;;;;;16.08;100.00;97907.88;5019259;28;20041;-95
2023/10/25 02:42:15;;;;;;;11.20;1.27;;;;;;;16.34;100.00;97954.50;5019037;28;20048;-95
2023/10/25 02:44:41;;;;;;;5.63;1.38;;;;;;;16.10;100.00;97906.81;5021310;28;20136;-95
2023/10/25 02:47:07;;;;;;;9.85;1.55;;;;;;;16.39;100.00;97955.94;5023134;28;20037;-95
2023/10/25 02:49:34;;;;;;;6.10;1.00;;;;;;;16.23;100.00;97918.47;5023233;28;20037;-95
2023/10/25 02:52:00;;;;;;;9.10;1.58;;;;;;;16.43;100.00;97956.59;5023265;28;20053;-96
2023/10/25 02:54:26;;;;;;;4.38;1.08;;;;;;;16.39;100.00;97953.25;5023044;28;20052;-96
2023/10/25 02:56:53;;;;;;;7.88;1.20;;;;;;;16.33;100.00;97939.34;5024073;28;20144;-96
2023/10/25 02:59:19;;;;;;;4.45;1.00;;;;;;;16.45;100.00;97957.34;5023392;28;20056;-95
2023/10/25 03:01:45;;;;;;;8.85;1.13;;;;;;;16.06;100.00;97885.66;5022358;28;20041;-95
2023/10/25 03:04:11;;;;;;;6.35;1.10;;;;;;;16.34;100.00;97941.09;5023436;28;20046;-96
2023/10/25 03:06:39;;;;;;;10.38;1.50;;;;;;;16.00;100.00;97889.56;5024518;28;20095;-96
2023/10/25 03:09:05;;;;;;;7.43;0.90;;;;;;;16.28;100.00;97936.97;5024747;28;20042;-96
2023/10/25 03:11:31;;;;;;;11.43;1.38;;;;;;;16.30;100.00;97939.56;5025142;28;20053;-95
2023/10/25 03:13:57;;;;;;;8.50;1.42;;;;;;;16.20;100.00;97918.69;5025168;28;20099;-94
2023/10/25 03:16:22;;;;;;;6.40;0.95;;;;;;;16.32;100.00;97932.25;5024822;28;20042;-96
2023/10/25 03:18:48;;;;;;;8.95;3.42;;;;;;;16.19;100.00;97914.25;5025418;28;20403;-96
2023/10/25 03:21:14;;;;;;;8.32;1.33;;;;;;;16.25;100.00;97914.84;5024805;28;20046;-94
2023/10/25 03:23:42;;;;;;;4.10;1.33;;;;;;;16.25;100.00;97925.56;5024959;28;20037;-95
2023/10/25 03:26:09;;;;;;;6.28;1.45;;;;;;;16.29;100.00;97919.06;5024983;28;20049;-95
2023/10/25 03:28:35;;;;;;;6.10;1.17;;;;;;;16.46;100.00;97945.69;5022898;28;20384;-94
2023/10/25 03:31:04;;;;;;;10.70;1.38;;;;;;;16.06;100.00;97888.31;5024045;28;20049;-96
2023/10/25 03:33:30;;;;;;;5.18;1.05;;;;;;;16.16;100.00;97900.19;5024286;28;20132;-96
2023/10/25 03:35:56;;;;;;;8.38;1.27;;;;;;;16.41;100.00;97951.31;5025301;28;20081;-94
2023/10/25 03:38:22;;;;;;;6.28;1.20;;;;;;;16.25;100.00;97922.91;5024292;28;20038;-95
2023/10/25 03:40:59;;;;;;;3.13;0.90;;;;;;;16.51;100.00;97953.44;5024590;28;20050;-95
2023/10/25 03:43:25;;;;;;;7.05;1.15;;;;;;;16.19;100.00;97908.91;5024071;28;20032;-96
2023/10/25 03:45:51;;;;;;;7.43;1.38;;;;;;;16.19;100.00;97927.66;5023593;28;20052;-95
2023/10/25 03:48:17;;;;;;;7.05;0.85;;;;;;;16.05;100.00;97910.72;5022833;28;20149;-96
2023/10/25 03:50:43;;;;;;;6.10;1.33;;;;;;;16.26;100.00;97946.06;5023489;28;20054;-95
2023/10/25 03:53:09;;;;;;;4.70;1.38;;;;;;;16.36;100.00;97956.13;5024417;28;20445;-96
2023/10/25 03:55:35;;;;;;;10.10;1.35;;;;;;;16.10;100.00;97911.31;5024980;28;20044;-96
2023/10/25 03:58:02;;;;;;;3.92;1.20;;;;;;;16.06;100.00;97893.69;5024356;28;20045;-96
2023/10/25 04:00:28;;;;;;;7.22;1.15;;;;;;;16.19;100.00;97930.34;5024243;28;20045;-96
2023/10/25 04:02:54;;;;;;;5.85;1.13;;;;;;;16.08;100.00;97898.00;5023783;28;20067;-95
2023/10/25 04:05:20;;;;;;;8.45;1.40;;;;;;;16.39;100.00;97949.69;5023717;28;20041;-96
2023/10/25 04:07:50;;;;;;;8.68;1.10;;;;;;;16.04;100.00;97895.59;5023109;28;20046;-95
2023/10/25 04:10:16;;;;;;;8.38;1.23;;;;;;;16.46;100.00;97971.63;5023774;28;20042;-96
2023/10/25 04:12:42;;;;;;;6.32;1.27;;;;;;;16.08;100.00;97911.41;5023314;28;20486;-95
2023/10/25 04:15:10;;;;;;;9.10;1.48;;;;;;;16.08;100.00;97903.34;5025078;28;20099;-95
2023/10/25 04:17:36;;;;;;;9.98;1.13;;;;;;;16.35;100.00;97932.06;5024831;28;20044;-94
2023/10/25 04:20:02;;;;;;;5.40;1.20;;;;;;;16.19;100.00;97919.63;5023502;28;20053;-95
2023/10/25 04:22:28;;;;;;;6.18;1.13;;;;;;;16.00;100.00;97900.28;5024499;28;20073;-95
2023/10/25 04:24:54;;;;;;;8.90;1.42;;;;;;;16.02;100.00;97907.28;5023974;28;20418;-94
2023/10/25 04:27:20;;;;;;;6.47;1.40;;;;;;;15.87;100.00;97883.25;5022152;28;20183;-95
2023/10/25 04:29:46;;;;;;;10.82;1.35;;;;;;;16.29;100.00;97948.56;5021722;28;20053;-94
2023/10/25 04:32:13;;;;;;;9.65;1.20;;;;;;;16.32;100.00;97949.22;5023608;28;20045;-95
2023/10/25 04:34:39;;;;;;;3.83;1.10;;;;;;;16.19;100.00;97954.50;5021939;28;20045;-95
2023/10/25 04:37:05;;;;;;;3.63;1.02;;;;;;;16.12;100.00;97931.72;5021126;28;20048;-95
2023/10/25 04:39:31;;;;;;;5.00;0.90;;;;;;;16.32;100.00;97954.59;5021699;28;20045;-95
2023/10/25 04:41:57;;;;;;;10.50;1.58;;;;;;;16.11;100.00;97916.59;5022149;28;20095;-95
2023/10/25 04:44:23;;;;;;;6.88;1.25;;;;;;;15.98;100.00;97896.84;5021518;28;20093;-96
2023/10/25 04:46:49;;;;;;;8.30;1.63;;;;;;;15.95;100.00;97892.53;5024664;28;20117;-95
2023/10/25 04:49:47;;;;;;;6.75;1.13;;;;;;;16.16;100.00;97916.28;5038124;28;20045;-96
2023/10/25 04:52:28;;;;;;;6.40;1.42;;;;;;;16.18;100.00;97925.97;5053370;28;20053;-95
2023/10/25 04:54:54;;;;;;;7.03;0.93;;;;;;;15.97;100.00;97897.81;5034379;28;20042;-96
2023/10/25 04:57:20;;;;;;;4.22;1.30;;;;;;;16.12;100.00;97937.06;5029913;28;20438;-95
2023/10/25 04:59:46;;;;;;;10.18;1.27;;;;;;;15.73;100.00;97884.97;5029485;28;20046;-95
2023/10/25 05:02:12;;;;;;;6.97;1.20;;;;;;;15.99;100.00;97928.06;5023861;28;20049;-94
2023/10/25 05:04:38;;;;;;;6.68;1.00;;;;;;;16.00;100.00;97933.34;5026079;28;20034;-96
2023/10/25 05:07:05;;;;;;;6.78;1.13;;;;;;;16.10;100.00;97956.91;5023214;28;20490;-95
2023/10/25 05:09:33;;;;;;;9.98;1.27;;;;;;;16.21;100.00;97971.34;5022012;28;20064;-94
2023/10/25 05:12:03;;;;;;;3.72;1.10;;;;;;;16.06;100.00;97947.31;5019551;28;20068;-92
2023/10/25 05:14:29;;;;;;;8.38;1.05;;;;;;;16.03;100.00;97956.44;5023470;28;20046;-94
2023/10/25 05:16:56;;;;;;;4.35;0.80;;;;;;;15.87;100.00;97913.59;5022790;28;20499;-96
2023/10/25 05:19:23;;;;;;;5.10;0.80;;;;;;;15.76;100.00;97916.94;5026463;28;20136;-96
2023/10/25 05:21:51;;;;;;;11.18;1.13;;;;;;;15.66;100.00;97898.81;5028777;28;20498;-95
2023/10/25 05:24:17;;;;;;;8.88;1.17;;;;;;;16.09;100.00;97966.78;5024691;28;20045;-95
2023/10/25 05:26:46;;;;;;;6.45;2.08;;;;;;;16.07;100.00;97957.09;5020809;28;20407;-94
2023/10/25 05:29:12;;;;;;;4.07;0.75;;;;;;;15.95;100.00;97923.88;5023392;28;20045;-93
2023/10/25 05:31:42;;;;;;;4.82;1.00;;;;;;;16.10;100.00;97970.31;5022060;28;20041;-96
2023/10/25 05:34:09;;;;;;;5.25;1.42;;;;;;;15.73;100.00;97918.97;5046052;28;20049;-93
2023/10/25 05:36:36;;;;;;;2.92;0.90;;;;;;;15.93;100.00;97921.25;5025720;28;20042;-94
2023/10/25 05:39:02;;;;;;;3.28;0.85;;;;;;;16.13;100.00;97954.03;5024028;28;20045;-93
2023/10/25 05:41:30;;;;;;;4.78;1.17;;;;;;;15.97;100.00;97930.00;5025351;28;20045;-94
2023/10/25 05:44:03;;;;;;;5.60;0.90;;;;;;;16.04;100.00;97955.47;5023571;28;20045;-93
2023/10/25 05:46:29;;;;;;;8.40;1.70;;;;;;;16.13;100.00;97949.50;5022562;28;20037;-92
2023/10/25 05:48:55;;;;;;;4.43;0.85;;;;;;;16.21;100.00;97973.19;5022328;28;20048;-94
2023/10/25 05:51:22;;;;;;;6.35;1.42;;;;;;;16.05;100.00;97942.91;5022675;28;20548;-94
2023/10/25 05:53:49;;;;;;;6.72;1.33;;;;;;;16.06;100.00;97942.81;5019934;28;20065;-93
2023/10/25 05:56:16;;;;;;;4.53;1.17;;;;;;;16.28;100.00;97962.94;5020088;28;20041;-92
2023/10/25 05:58:42;;;;;;;2.85;0.90;;;;;;;16.29;100.00;97956.63;5018150;28;20398;-94
2023/10/25 06:01:11;;;;;;;7.70;1.20;;;;;;;16.27;100.00;97943.28;5020186;28;20045;-93
2023/10/25 06:03:41;;;;;;;8.93;1.38;;;;;;;16.18;100.00;97949.25;5021987;28;20092;-92
2023/10/25 06:06:11;;;;;;;5.57;1.40;;;;;;;16.41;100.00;97986.19;5002905;28;20492;-93
2023/10/25 06:08:38;;;;;;;6.63;1.45;;;;;;;16.28;100.00;97970.97;5015729;28;20490;-94
2023/10/25 06:11:04;;;;;;;6.13;1.05;;;;;;;16.01;100.00;97912.75;5018817;28;20124;-94
2023/10/25 06:13:31;;;;;;;9.45;1.23;;;;;;;16.20;100.00;97945.50;5019045;28;20499;-95
2023/10/25 06:15:57;;;;;;;4.15;0.75;;;;;;;16.32;100.00;97970.69;5019483;28;20052;-94
2023/10/25 06:18:24;;;;;;;4.40;0.85;;;;;;;16.34;100.00;97971.44;5018767;28;20124;-94
2023/10/25 06:20:50;;;;;;;9.05;1.30;;;;;;;16.04;100.00;97912.56;5018585;28;20042;-95
2023/10/25 06:23:16;;;;;;;7.53;1.08;;;;;;;16.42;100.00;97960.25;5019007;28;20045;-93
2023/10/25 06:25:42;;;;;;;12.02;1.10;;;;;;;16.34;100.00;97946.44;5017666;28;20435;-93
2023/10/25 06:28:07;;;;;;;7.88;1.10;;;;;;;16.34;100.00;97952.66;5019602;28;20041;-95
2023/10/25 06:30:33;;;;;;;2.78;0.90;;;;;;;16.19;100.00;97911.56;5019189;28;20038;-93
2023/10/25 06:32:59;;;;;;;9.07;1.17;;;;;;;16.38;100.00;97947.97;5019937;28;20061;-95
2023/10/25 06:35:27;;;;;;;6.13;1.15;;;;;;;16.59;100.00;97977.94;5016601;28;20141;-95
2023/10/25 06:37:53;;;;;;;5.10;1.15;;;;;;;16.63;100.00;97980.34;5002145;28;20049;-91
2023/10/25 06:40:20;;;;;;;5.70;0.93;;;;;;;16.77;100.00;97990.19;5018012;28;20045;-93
2023/10/25 06:42:46;;;;;;;13.90;1.10;;;;;;;16.65;100.00;97972.16;5019856;28;20042;-94
2023/10/25 06:45:14;;;;;;;10.00;1.05;;;;;;;16.86;100.00;97993.25;5018780;28;20120;-94
2023/10/25 06:47:41;;;;;;;5.03;1.00;;;;;;;16.64;100.00;97971.31;5018199;28;20574;-93
2023/10/25 06:50:09;;;;;;;8.27;1.52;;;;;;;16.94;100.00;98007.06;5006258;28;20038;-95
2023/10/25 06:52:37;;;;;;;9.20;1.52;;;;;;;16.96;100.00;98007.81;5014669;28;20136;-92
2023/10/25 06:55:04;;;;;;;6.78;0.90;;;;;;;17.04;100.00;98022.47;5016884;28;20553;-93
2023/10/25 06:57:31;;;;;;;8.20;1.02;;;;;;;17.17;100.00;98027.88;5017684;28;20499;-94
2023/10/25 06:59:57;;;;;;;8.93;1.30;;;;;;;17.15;100.00;98002.94;5017467;28;20041;-94
2023/10/25 07:02:37;;;;;;;2.35;1.27;;;;;;;17.17;100.00;97992.94;5017432;28;20445;-94
2023/10/25 07:05:10;;;;;;;7.57;0.90;;;;;;;17.15;100.00;97992.19;5016066;28;20486;-93
2023/10/25 07:07:38;;;;;;;6.97;1.15;;;;;;;17.29;100.00;98018.16;5012396;28;20057;-93
2023/10/25 07:10:06;;;;;;;7.28;1.48;;;;;;;17.11;100.00;97973.69;5017366;28;20566;-93
2023/10/25 07:12:32;;;;;;;7.97;1.65;;;;;;;17.25;100.00;97993.31;5017860;28;20133;-95
2023/10/25 07:14:58;;;;;;;6.63;1.40;;;;;;;17.17;100.00;97979.53;5018598;28;20456;-95
2023/10/25 07:17:24;;;;;;;9.35;1.40;;;;;;;17.28;100.00;98002.13;5018735;28;20041;-94
2023/10/25 07:19:50;;;;;;;2.92;0.90;;;;;;;17.26;100.00;97986.09;5021322;28;20030;-94
2023/10/25 07:22:16;;;;;;;5.25;0.73;;;;;;;17.43;100.00;98026.16;5021199;28;20041;-95
2023/10/25 07:24:43;;;;;;;3.88;1.00;;;;;;;17.40;100.00;97988.75;5025110;28;20495;-91
2023/10/25 07:27:10;;;;;;;8.27;0.80;;;;;;;17.20;100.00;97943.56;5021699;28;20055;-93
2023/10/25 07:29:36;;;;;;;4.95;1.13;;;;;;;17.62;100.00;98006.09;5021254;28;20073;-93
2023/10/25 07:32:02;;;;;;;9.70;1.33;;;;;;;17.27;100.00;97944.84;5025721;28;20081;-93
2023/10/25 07:34:28;;;;;;;7.80;1.00;;;;;;;17.32;100.00;97972.25;5022579;28;20053;-94
2023/10/25 07:36:54;;;;;;;5.72;0.90;;;;;;;17.44;100.00;97975.97;5024912;28;20418;-92
2023/10/25 07:39:21;;;;;;;5.90;1.52;;;;;;;17.49;100.00;97994.47;5044988;28;20040;-95
2023/10/25 07:41:48;;;;;;;9.82;1.35;;;;;;;17.29;100.00;97956.34;5027270;28;20048;-95
2023/10/25 07:44:15;;;;;;;8.07;1.35;;;;;;;17.07;100.00;97959.63;5030905;28;20051;-95
2023/10/25 07:46:42;;;;;;;4.68;1.40;;;;;;;17.18;100.00;97970.50;5031363;28;20140;-95
2023/10/25 07:49:08;;;;;;;7.43;1.33;;;;;;;17.30;100.00;97982.25;5023019;28;20128;-95
2023/10/25 07:51:36;;;;;;;5.50;1.17;;;;;;;17.51;100.00;98017.59;5030790;28;20053;-95
2023/10/25 07:54:02;;;;;;;3.63;0.90;;;;;;;17.21;100.00;97994.47;5030260;28;20494;-94
2023/10/25 07:56:28;;;;;;;7.18;1.40;;;;;;;16.99;100.00;97970.88;5030500;28;20108;-95
2023/10/25 07:58:57;;;;;;;7.88;2.05;;;;;;;16.96;100.00;97971.09;5029960;28;20042;-94
2023/10/25 08:01:24;;;;;;;7.07;2.60;;;;;;;16.96;100.00;97986.34;5030100;28;20045;-95
2023/10/25 08:03:50;;;;;;;5.72;1.63;;;;;;;17.16;100.00;98010.06;5028899;28;20046;-95
2023/10/25 08:06:17;;;;;;;8.63;1.75;;;;;;;17.13;100.00;97987.88;5030861;28;20145;-94
2023/10/25 08:08:43;;;;;;;8.93;2.25;;;;;;;17.37;100.00;98029.28;5028168;28;20041;-95
2023/10/25 08:11:09;;;;;;;3.67;2.13;;;;;;;17.10;100.00;97967.47;5028408;28;20411;-94
2023/10/25 08:13:38;;;;;;;10.70;2.45;;;;;;;17.64;100.00;98031.91;5028301;28;20049;-96
2023/10/25 08:16:06;;;;;;;7.07;1.58;;;;;;;17.76;100.00;98032.03;5025080;28;20114;-93
2023/10/25 08:18:32;;;;;;;17.50;5.38;;;;;;;17.78;100.00;98038.19;5014686;28;20399;-94
2023/10/25 08:20:58;;;;;;;14.65;2.97;;;;;;;17.40;100.00;97969.06;5027247;28;20052;-96
2023/10/25 08:23:25;;;;;;;7.70;2.42;;;;;;;17.57;100.00;97982.22;5027925;28;20045;-94
2023/10/25 08:25:51;;;;;;;3.90;1.48;;;;;;;17.80;100.00;98033.56;5024818;28;20042;-93
2023/10/25 08:28:17;;;;;;;8.20;1.77;;;;;;;17.75;100.00;98012.38;5026842;28;20495;-93
2023/10/25 08:30:43;;;;;;;9.85;1.60;;;;;;;17.45;100.00;97962.41;5025781;28;20064;-93
2023/10/25 08:33:10;;;;;;;8.80;1.95;;;;;;;17.39;100.00;97956.59;5026775;28;20056;-94
2023/10/25 08:35:37;;;;;;;10.70;2.72;;;;;;;17.80;100.00;97996.78;5026589;28;20063;-94
2023/10/25 08:38:05;;;;;;;8.57;1.77;;;;;;;17.93;100.00;97969.06;5026649;28;20109;-95
2023/10/25 08:40:31;;;;;;;6.18;1.48;;;;;;;18.09;100.00;97983.16;5025317;28;20038;-94
2023/10/25 08:42:58;;;;;;;6.18;1.45;;;;;;;18.20;100.00;97959.06;5025614;28;20460;-94
2023/10/25 08:45:25;;;;;;;6.57;1.70;;;;;;;18.59;100.00;98010.16;5026138;28;20064;-94
2023/10/25 08:47:51;;;;;;;10.27;1.20;;;;;;;18.50;100.00;97973.97;5027163;28;20575;-94
2023/10/25 08:50:20;;;;;;;3.63;1.02;;;;;;;18.88;100.00;98030.47;5027220;28;20049;-93
2023/10/25 08:52:49;;;;;;;6.75;1.40;;;;;;;18.48;100.00;97962.47;5043169;28;20083;-94
2023/10/25 08:55:18;;;;;;;9.95;1.25;;;;;;;18.63;100.00;97982.88;5035290;28;20138;-94
2023/10/25 08:57:44;;;;;;;8.23;1.27;;;;;;;19.22;100.00;98046.00;5007946;28;20038;-94
2023/10/25 09:00:12;;;;;;;8.18;1.00;;;;;;;18.71;100.00;97968.00;5009373;28;20042;-96
2023/10/25 09:02:39;;;;;;;8.02;1.00;;;;;;;18.71;100.00;97973.38;5009745;28;20050;-95
2023/10/25 09:05:06;;;;;;;6.22;1.48;;;;;;;18.61;100.00;97992.91;5009087;28;20045;-95
2023/10/25 09:07:35;;;;;;;5.65;1.33;;;;;;;18.42;100.00;97981.75;5007923;28;20050;-94
2023/10/25 09:10:03;;;;;;;2.75;0.80;;;;;;;18.64;100.00;98032.22;5007662;28;20042;-94
2023/10/25 09:12:30;;;;;;;2.90;0.98;;;;;;;18.60;100.00;98031.56;5014599;28;20073;-95
2023/10/25 09:14:56;;;;;;;5.68;0.90;;;;;;;18.16;100.00;97984.44;5026966;28;20048;-94
2023/10/25 09:17:22;;;;;;;6.20;0.90;;;;;;;18.22;100.00;97981.34;5027385;28;20048;-94
2023/10/25 09:19:49;;;;;;;1.98;0.85;;;;;;;18.27;100.00;97981.84;5027195;28;20136;-93
2023/10/25 09:22:25;;;;;;;4.47;1.38;;;;;;;18.39;100.00;97977.44;5028414;28;20144;-95
2023/10/25 09:24:55;;;;;;;3.45;1.23;;;;;;;18.19;100.00;97983.38;5061665;28;20502;-96
2023/10/25 09:27:22;;;;;;;5.60;0.90;;;;;;;18.09;100.00;97975.09;5028911;28;20037;-95
2023/10/25 09:29:48;;;;;;;5.78;0.95;;;;;;;18.09;100.00;98007.38;5025506;28;20108;-95
2023/10/25 09:32:14;;;;;;;5.45;1.15;;;;;;;17.84;100.00;97974.09;5024124;28;20113;-96
2023/10/25 09:34:41;;;;;;;7.03;1.30;;;;;;;18.42;100.00;98049.91;5025403;28;20080;-96
2023/10/25 09:37:07;;;;;;;8.15;1.75;;;;;;;18.21;100.00;97995.75;5025401;28;20442;-95
2023/10/25 09:39:37;;;;;;;7.03;1.33;;;;;;;18.25;100.00;97991.88;5026042;28;20045;-96
2023/10/25 09:42:05;;;;;;;;;;;;;;;18.65;100.00;98050.06;5028179;28;20038;-95
2023/10/25 09:44:47;;;;;;;3.63;1.00;;;;;;;18.65;100.00;97975.56;5023920;28;19964;-94
2023/10/25 09:47:17;;;;;;;6.13;1.42;;;;;;;19.20;100.00;98012.91;5022343;28;20052;-94
2023/10/25 09:49:44;;;;;;;5.10;1.42;;;;;;;19.39;100.00;98017.81;5027491;28;20091;-95
2023/10/25 09:52:17;;;;;;;4.70;1.00;;;;;;;19.23;100.00;97983.88;5046746;28;20117;-95
2023/10/25 09:54:50;;;;;;;8.88;1.15;;;;;;;19.15;100.00;97972.84;5028762;28;20473;-95
2023/10/25 09:57:19;;;;;;;6.25;1.40;;;;;;;19.04;100.00;97970.06;5028744;28;20048;-94
2023/10/25 09:59:46;;;;;;;4.07;1.33;;;;;;;19.07;100.00;97970.69;5025549;28;20049;-96
2023/10/25 10:02:19;;;;;;;5.18;1.00;;;;;;;19.43;100.00;98006.66;5023189;28;20049;-96
2023/10/25 10:04:56;;;;;;;6.15;0.98;;;;;;;19.12;100.00;97959.56;5023199;28;20052;-96
2023/10/25 10:07:36;;;;;;;7.93;1.23;;;;;;;19.33;100.00;97980.50;5024415;28;20045;-95
2023/10/25 10:10:11;;;;;;;7.28;1.70;;;;;;;19.67;100.00;97990.44;5024756;28;20049;-95
2023/10/25 10:12:39;;;;;;;5.25;1.00;;;;;;;19.53;100.00;97931.31;5024748;28;20151;-94
2023/10/25 10:15:06;;;;;;;6.15;1.63;;;;;;;19.70;100.00;97938.13;5023935;28;20053;-95
2023/10/25 10:17:34;;;;;;;5.18;1.02;;;;;;;20.29;100.00;97977.59;5025371;28;20056;-96
2023/10/25 10:20:04;;;;;;;5.38;0.95;;;;;;;20.20;100.00;97935.97;5025675;28;20041;-95
2023/10/25 10:22:30;;;;;;;5.70;0.90;;;;;;;20.29;100.00;97929.00;5022356;28;20506;-91
2023/10/25 10:25:00;;;;;;;6.50;0.90;;;;;;;20.68;100.00;97972.69;5022309;28;20048;-93
2023/10/25 10:27:54;;;;;;;6.10;1.15;;;;;;;20.79;100.00;97912.38;5024727;28;20072;-95
2023/10/25 10:30:37;;;;;;;6.18;1.40;;;;;;;21.06;100.00;97909.25;5011632;28;20038;-95
2023/10/25 10:33:04;;;;;;;5.53;1.10;;;;;;;21.65;100.00;97964.69;5014039;28;20048;-95
2023/10/25 10:35:33;;;;;;;3.58;1.05;;;;;;;21.10;100.00;97906.16;5024253;28;20049;-95
2023/10/25 10:38:03;;;;;;;5.75;0.90;;;;;;;21.19;100.00;97949.59;5025938;28;20042;-96
2023/10/25 10:40:30;;;;;;;5.00;0.80;;;;;;;20.80;100.00;97906.00;5025377;28;20060;-95
2023/10/25 10:42:56;;;;;;;11.52;1.25;;;;;;;20.33;100.00;97895.38;5021616;28;20034;-94
2023/10/25 10:45:22;;;;;;;3.83;0.82;;;;;;;20.68;100.00;97948.38;5020998;28;20052;-95
2023/10/25 10:47:55;;;;;;;7.82;1.05;;;;;;;20.60;100.00;97908.50;5024037;28;20048;-95
2023/10/25 10:50:23;;;;;;;7.63;1.00;;;;;;;21.07;100.00;97943.38;5021943;28;20064;-95
2023/10/25 10:52:50;;;;;;;4.07;0.82;;;;;;;20.92;100.00;97896.88;5021257;28;20117;-95
2023/10/25 10:55:17;;;;;;;7.25;1.50;;;;;;;20.76;100.00;97877.53;5017539;28;20045;-93
2023/10/25 10:57:44;;;;;;;12.32;0.90;;;;;;;20.57;100.00;97881.72;5022429;28;20116;-94
2023/10/25 11:00:13;;;;;;;2.30;0.90;;;;;;;20.88;100.00;97900.81;5021623;28;20049;-93
2023/10/25 11:02:40;;;;;;;4.82;0.95;;;;;;;20.79;100.00;97886.22;5022419;28;20049;-92
2023/10/25 11:05:09;;;;;;;4.20;0.73;;;;;;;20.68;100.00;97926.78;5024639;28;20553;-93
2023/10/25 11:07:35;;;;;;;6.57;0.88;;;;;;;20.59;100.00;97868.97;5028041;28;20112;-94
2023/10/25 11:10:01;;;;;;;5.65;0.80;;;;;;;21.01;100.00;97923.13;5028396;28;20049;-96
2023/10/25 11:12:27;;;;;;;6.75;1.15;;;;;;;21.05;100.00;97907.50;5030930;28;20049;-95
2023/10/25 11:15:00;;;;;;;7.30;1.00;;;;;;;20.96;100.00;97919.94;5031122;28;20048;-95
2023/10/25 11:17:26;;;;;;;5.85;0.98;;;;;;;20.70;100.00;97909.44;5062677;28;20068;-94
2023/10/25 11:19:53;;;;;;;4.50;0.98;;;;;;;20.40;100.00;97849.81;5033481;28;20033;-94
2023/10/25 11:22:26;;;;;;;7.53;0.90;;;;;;;20.84;100.00;97923.66;5054388;28;20051;-94
2023/10/25 11:24:53;;;;;;;4.38;1.00;;;;;;;20.27;100.00;97849.97;5035735;28;20068;-95